Aérodrome :
LOGIN :

S'inscrire | Disclaimer

   EN    FR    IT 

 










Légende :    VFR   VFR Marginal   IFR   IFR Intensif   IFR Très Intensif
Visi : 
Plafond : 
>= 8 km
>= 3000ft
5 à 8 km
1000 à 3000 ft
1500m à 5 km
500 à 1000 ft
800 à 1500m
200 à 500 ft
< 800m
< 200 ft
Symboles :   Orages  Brouillard  Fortes neiges  Fortes précipitations  Vent > 20 kt
SIGMETs :   Divers  Orages  Givrage  Turbulence  Onde Orograph.  Cendres Volcan.






- Altitude de l'aérodrome : 74 ft
- Code IATA : NDZ


ETMN - Cuxhaven Nordholz Sea AB

DERNIER METAR :
  • 011420Z 28016KT 9999 FEW009 BKN050 07/04 Q1017 BLU BLU

METARs EXPIRÉS :
  • 011320Z 29018KT 9999 FEW013 BKN047 08/03 Q1018 BLU BLU
  • 011220Z 28020KT 9999 FEW017 BKN055 09/02 Q1018 BLU BLU

TAF TAF ETMN
Valide du 01 à 14h jusqu'au 01 à 23h UTC


011315Z 0114/0123 26013KT 9999 NSW SCT015 BKN045
PROB30 0114/0123 28015G25KT 7000 -SHRA SCT010 BKN015TCU



MET'MAP, la Météo Aéronautique d'un coup d'oeil ! - Copyright ORBIFLY Décembre 2007 - Disclaimer

ORBIFLY MET'MAP TEAM :

Programmation & Développement : Alexandra Zaïnal
Sur une idée originale de : Baudouin d'Aumeries
Assistance à la programmation : Marc-Olivier Méhu
Soutien technique & logistique : Manuel Goepfert

Contact : metmap@orbifly.com




SOURCES & CREDITS :

   NOAA